Time;durP1;ratioP1;P1;durP2;ratioP2;P2;SDS_P1;SDS_P2;PMS_P1;PMS_P2;Temp;Humidity;BMP_temperature;BMP_pressure;BME280_temperature;BME280_humidity;BME280_pressure;Samples;Min_cycle;Max_cycle;Signal;HPM_P1;HPM_P2
2023/02/20 00:01:33;;;;;;;11.55;7.20;;;5.70;99.90;;;;;;6215939;23;20102;-81
2023/02/20 00:03:58;;;;;;;15.65;7.82;;;6.00;99.90;;;;;;6216906;23;20012;-83
2023/02/20 00:06:24;;;;;;;15.93;8.00;;;5.90;99.90;;;;;;6192111;23;20035;-84
2023/02/20 00:08:50;;;;;;;18.75;8.50;;;6.00;99.90;;;;;;6216329;23;20027;-81
2023/02/20 00:11:15;;;;;;;15.13;8.05;;;5.70;99.90;;;;;;6191635;23;20087;-82
2023/02/20 00:14:00;;;;;;;15.15;8.40;;;6.00;99.90;;;;;;6191420;23;20016;-81
2023/02/20 00:16:26;;;;;;;18.55;10.18;;;6.10;99.90;;;;;;6191803;23;20012;-81
2023/02/20 00:18:51;;;;;;;20.55;10.27;;;6.00;99.90;;;;;;6191564;23;20008;-82
2023/02/20 00:21:17;;;;;;;17.40;10.27;;;5.80;99.90;;;;;;6191051;23;20023;-81
2023/02/20 00:23:43;;;;;;;24.30;12.60;;;6.20;99.90;;;;;;6188813;23;20020;-82
2023/02/20 00:26:10;;;;;;;20.70;12.13;;;6.20;99.90;;;;;;6189821;23;20016;-79
2023/02/20 00:28:38;;;;;;;23.27;13.18;;;6.00;99.90;;;;;;6191834;23;20420;-87
2023/02/20 00:31:05;;;;;;;24.02;13.63;;;6.00;99.90;;;;;;6243119;23;20012;-79
2023/02/20 00:33:31;;;;;;;23.77;13.25;;;6.20;99.90;;;;;;6191314;23;20034;-80
2023/02/20 00:35:57;;;;;;;22.17;15.13;;;6.30;99.90;;;;;;6190951;23;20044;-78
2023/02/20 00:38:22;;;;;;;28.58;16.35;;;6.00;99.90;;;;;;6215090;23;20085;-78
2023/02/20 00:40:48;;;;;;;29.15;16.13;;;6.00;99.90;;;;;;6191755;23;20008;-81
2023/02/20 00:43:14;;;;;;;26.38;16.35;;;6.00;99.90;;;;;;6216294;23;20095;-78
2023/02/20 00:45:39;;;;;;;27.33;16.15;;;6.00;99.90;;;;;;6216472;23;20027;-83
2023/02/20 00:48:05;;;;;;;26.98;16.10;;;6.00;99.90;;;;;;6190320;23;20012;-80
2023/02/20 00:50:31;;;;;;;25.55;16.65;;;6.40;99.90;;;;;;6190615;23;20432;-83
2023/02/20 00:52:56;;;;;;;26.70;15.57;;;6.30;99.90;;;;;;6216295;23;20118;-78
2023/02/20 00:55:22;;;;;;;28.83;16.98;;;6.20;99.90;;;;;;6216116;23;20066;-79
2023/02/20 00:57:48;;;;;;;26.25;16.63;;;6.10;99.90;;;;;;6191158;23;20182;-79
2023/02/20 01:00:26;;;;;;;24.63;16.60;;;6.10;99.90;;;;;;6190469;23;20012;-80
2023/02/20 01:02:52;;;;;;;26.58;16.55;;;6.30;99.90;;;;;;6216948;23;20498;-80
2023/02/20 01:05:18;;;;;;;28.00;17.40;;;6.30;99.90;;;;;;6194787;23;20012;-79
2023/02/20 01:07:43;;;;;;;25.38;15.85;;;6.10;99.90;;;;;;6190912;23;20293;-85
2023/02/20 01:10:10;;;;;;;26.17;16.02;;;6.30;99.90;;;;;;6191740;23;20012;-79
2023/02/20 01:12:36;;;;;;;25.33;15.95;;;6.00;99.90;;;;;;6191733;23;20087;-82
2023/02/20 01:15:02;;;;;;;23.50;16.02;;;6.00;99.90;;;;;;6191399;23;20051;-82
2023/02/20 01:17:28;;;;;;;26.77;16.60;;;6.00;99.90;;;;;;6190873;23;20421;-81
2023/02/20 01:19:54;;;;;;;24.42;15.38;;;6.30;99.90;;;;;;6193825;23;20071;-83
2023/02/20 01:22:21;;;;;;;24.67;15.75;;;6.00;99.90;;;;;;6223602;23;20012;-80
2023/02/20 01:24:46;;;;;;;24.70;15.68;;;6.00;99.90;;;;;;6230504;23;20039;-79
2023/02/20 01:27:12;;;;;;;23.38;15.95;;;6.00;99.90;;;;;;6237148;23;20066;-79
2023/02/20 01:29:38;;;;;;;26.65;15.50;;;6.30;99.90;;;;;;6202173;23;20016;-81
2023/02/20 01:32:04;;;;;;;25.40;15.48;;;6.30;99.90;;;;;;6225469;23;20031;-82
2023/02/20 01:34:29;;;;;;;22.58;14.77;;;6.00;99.90;;;;;;6255975;23;20082;-80
2023/02/20 01:36:56;;;;;;;27.10;15.75;;;6.20;99.90;;;;;;6222396;23;20363;-83
2023/02/20 01:39:30;;;;;;;21.88;15.23;;;6.00;99.90;;;;;;6195496;23;20011;-82
2023/02/20 01:42:03;;;;;;;21.48;13.90;;;6.10;99.90;;;;;;6195138;23;20020;-79
2023/02/20 01:44:34;;;;;;;25.52;14.27;;;6.00;99.90;;;;;;6193899;23;20105;-83
2023/02/20 01:47:04;;;;;;;22.75;14.10;;;6.10;99.90;;;;;;6217565;23;20105;-82
2023/02/20 01:49:36;;;;;;;21.27;13.80;;;6.40;99.90;;;;;;6196699;23;20048;-81
2023/02/20 01:52:13;;;;;;;18.08;12.90;;;6.10;99.90;;;;;;6222268;23;20031;-81
2023/02/20 01:54:42;;;;;;;24.08;13.70;;;6.40;99.90;;;;;;6196280;23;20073;-84
2023/02/20 01:57:18;;;;;;;21.27;14.10;;;6.60;99.90;;;;;;6194150;23;20138;-78
2023/02/20 01:59:46;;;;;;;23.02;13.23;;;6.60;99.90;;;;;;6219038;23;20043;-81
2023/02/20 02:02:12;;;;;;;24.63;13.40;;;6.30;99.90;;;;;;6194509;23;20448;-80
2023/02/20 02:04:40;;;;;;;24.83;12.65;;;6.40;99.90;;;;;;6197628;23;20022;-79
2023/02/20 02:07:06;;;;;;;20.88;12.55;;;6.60;99.90;;;;;;6198052;23;20073;-81
2023/02/20 02:09:43;;;;;;;22.35;13.07;;;6.70;99.90;;;;;;6196256;23;20012;-79
2023/02/20 02:12:09;;;;;;;23.35;12.50;;;6.50;99.90;;;;;;6195406;23;20061;-83
2023/02/20 02:14:53;;;;;;;21.42;12.10;;;6.80;99.90;;;;;;6193827;23;20023;-81
2023/02/20 02:17:49;;;;;;;22.92;12.73;;;6.90;99.90;;;;;;6193411;23;20062;-80
2023/02/20 02:20:17;;;;;;;24.00;12.80;;;6.90;99.90;;;;;;6193579;23;20012;-82
2023/02/20 02:23:13;;;;;;;22.70;12.20;;;6.80;99.90;;;;;;6218436;23;20012;-80
2023/02/20 02:26:23;;;;;;;24.33;12.73;;;6.60;99.90;;;;;;6193342;23;20008;-82
2023/02/20 02:29:13;;;;;;;22.80;12.35;;;6.70;99.90;;;;;;6044911;23;20042;-81
2023/02/20 02:32:00;;;;;;;22.92;12.68;;;6.70;99.90;;;;;;6044112;23;20018;-84
2023/02/20 02:34:58;;;;;;;24.17;13.55;;;7.10;99.90;;;;;;6043794;23;20022;-79
2023/02/20 02:37:32;;;;;;;23.88;13.38;;;6.80;99.90;;;;;;6045410;23;20086;-79
2023/02/20 02:40:12;;;;;;;30.33;13.07;;;7.10;99.90;;;;;;6068510;23;20043;-80
2023/02/20 02:42:51;;;;;;;25.40;12.82;;;6.80;99.90;;;;;;6092623;23;20439;-81
2023/02/20 02:45:28;;;;;;;27.73;13.52;;;7.20;99.90;;;;;;6069541;23;20021;-78
2023/02/20 02:48:02;;;;;;;30.08;13.95;;;7.10;99.90;;;;;;6044186;23;20011;-80
2023/02/20 02:50:35;;;;;;;25.33;13.55;;;7.00;99.90;;;;;;6068236;23;20017;-83
2023/02/20 02:53:02;;;;;;;25.75;14.57;;;7.20;99.90;;;;;;6067912;23;20049;-82
2023/02/20 02:55:32;;;;;;;33.45;13.90;;;7.20;99.90;;;;;;6068529;23;20582;-80
2023/02/20 02:57:59;;;;;;;27.23;13.68;;;7.00;99.90;;;;;;6067810;23;20058;-81
2023/02/20 03:00:34;;;;;;;32.08;14.18;;;7.10;99.90;;;;;;6043258;23;20049;-83
2023/02/20 03:03:05;;;;;;;;;;;6.80;99.90;;;;;;6044055;23;20010;-81
2023/02/20 03:05:56;;;;;;;28.52;13.90;;;7.10;99.90;;;;;;6144563;23;19911;-81
2023/02/20 03:08:32;;;;;;;31.50;15.45;;;7.20;99.90;;;;;;6244260;23;20451;-79
2023/02/20 03:11:12;;;;;;;30.92;15.07;;;6.90;99.90;;;;;;6191801;23;20008;-84
2023/02/20 03:16:42;;;;;;;30.42;14.13;;;7.10;99.90;;;;;;6214543;23;20027;-83
2023/02/20 03:19:12;;;;;;;34.50;14.57;;;6.80;99.90;;;;;;6216383;23;20074;-83
2023/02/20 03:21:41;;;;;;;38.42;15.23;;;6.70;99.90;;;;;;6217293;23;20051;-83
2023/02/20 03:24:09;;;;;;;35.08;14.60;;;6.80;99.90;;;;;;6215706;23;20492;-84
2023/02/20 03:26:36;;;;;;;33.97;14.55;;;7.10;99.90;;;;;;6216871;23;20023;-82
2023/02/20 03:29:12;;;;;;;32.40;14.75;;;7.10;99.90;;;;;;6192214;23;20022;-80
2023/02/20 03:45:51;;;;;;;37.95;14.80;;;6.80;99.90;;;;;;6225096;23;20012;-82
2023/02/20 03:48:47;;;;;;;48.13;15.98;;;6.80;99.90;;;;;;6191529;23;20111;-84
2023/02/20 03:51:13;;;;;;;42.53;15.50;;;6.80;99.90;;;;;;6217818;23;20047;-79
2023/02/20 03:53:43;;;;;;;31.58;14.80;;;7.20;99.90;;;;;;6216315;23;20020;-80
2023/02/20 03:56:15;;;;;;;36.35;15.07;;;6.80;99.90;;;;;;6217149;23;20114;-81
2023/02/20 03:58:47;;;;;;;33.33;14.63;;;6.90;99.90;;;;;;6216992;23;20008;-81
2023/02/20 04:01:16;;;;;;;35.40;14.70;;;7.20;99.90;;;;;;6215566;23;20087;-84
2023/02/20 04:03:46;;;;;;;37.25;14.70;;;7.00;99.90;;;;;;6192382;23;20344;-80
2023/02/20 04:06:14;;;;;;;39.55;14.48;;;7.30;99.90;;;;;;6192026;23;20028;-78
2023/02/20 04:08:55;;;;;;;34.08;14.23;;;6.90;99.90;;;;;;6191806;23;20012;-82
2023/02/20 04:11:26;;;;;;;42.88;13.98;;;6.80;99.90;;;;;;6218270;23;20020;-81
2023/02/20 04:13:55;;;;;;;37.95;13.77;;;6.80;99.90;;;;;;6192129;23;20436;-80
2023/02/20 04:16:21;;;;;;;36.85;13.35;;;7.30;99.90;;;;;;6216029;23;20016;-81
2023/02/20 04:18:51;;;;;;;37.50;14.10;;;7.30;99.90;;;;;;6194927;23;20011;-79
2023/02/20 04:21:34;;;;;;;33.80;12.90;;;7.00;99.90;;;;;;6194726;23;20027;-83
2023/02/20 04:24:10;;;;;;;38.00;13.98;;;6.90;99.90;;;;;;6213199;23;20139;-83
2023/02/20 04:26:36;;;;;;;40.13;13.77;;;7.10;99.90;;;;;;6191372;23;20016;-81
2023/02/20 04:29:03;;;;;;;44.10;14.02;;;6.90;99.90;;;;;;6191673;23;20035;-80
2023/02/20 04:31:29;;;;;;;39.33;14.10;;;6.90;99.90;;;;;;6191210;23;20336;-80
2023/02/20 04:33:55;;;;;;;40.33;14.57;;;6.90;99.90;;;;;;6216575;23;20020;-79
2023/02/20 04:36:21;;;;;;;37.78;13.23;;;7.00;99.90;;;;;;6192284;23;20019;-83
2023/02/20 04:38:47;;;;;;;34.45;14.27;;;7.30;99.90;;;;;;6216440;23;20008;-85
2023/02/20 04:41:13;;;;;;;35.88;13.95;;;6.90;99.90;;;;;;6216872;23;20389;-78
2023/02/20 04:43:38;;;;;;;45.30;13.95;;;7.30;99.90;;;;;;6192231;23;20023;-80
2023/02/20 04:46:04;;;;;;;38.97;13.75;;;7.10;99.90;;;;;;6191599;23;20440;-81
2023/02/20 04:48:30;;;;;;;46.30;13.88;;;7.30;99.90;;;;;;6192115;23;20023;-81
2023/02/20 04:50:55;;;;;;;46.80;13.77;;;6.80;99.90;;;;;;6190644;23;20016;-83
2023/02/20 04:53:21;;;;;;;39.28;13.75;;;6.80;99.90;;;;;;6216323;23;20432;-85
2023/02/20 04:55:47;;;;;;;39.15;12.90;;;7.30;99.90;;;;;;6220075;23;20008;-83
2023/02/20 04:58:13;;;;;;;40.95;13.43;;;6.90;99.90;;;;;;6191899;23;20429;-79
2023/02/20 05:00:57;;;;;;;33.90;11.60;;;7.30;99.90;;;;;;6216849;23;20016;-84
2023/02/20 05:03:23;;;;;;;40.65;13.30;;;7.00;99.90;;;;;;6192495;23;20012;-82
2023/02/20 05:05:48;;;;;;;46.33;13.38;;;6.90;99.90;;;;;;6218853;23;20047;-79
2023/02/20 05:08:14;;;;;;;38.83;12.25;;;6.90;99.90;;;;;;6198494;23;20012;-78
2023/02/20 05:10:40;;;;;;;39.40;13.23;;;7.20;99.90;;;;;;6205489;23;20042;-78
2023/02/20 05:13:05;;;;;;;38.53;11.98;;;7.30;99.90;;;;;;6240823;23;20042;-80
2023/02/20 05:15:31;;;;;;;43.75;12.60;;;7.30;99.90;;;;;;6208155;23;20012;-83
2023/02/20 05:17:57;;;;;;;41.58;12.25;;;7.30;99.90;;;;;;6193966;23;20012;-79
2023/02/20 05:22:17;;;;;;;39.22;11.13;;;7.20;99.90;;;;;;6193225;23;20019;-83
2023/02/20 05:23:08;;;;;;;40.80;12.52;;;7.00;99.90;;;;;;6217306;23;20020;-82
2023/02/20 05:25:34;;;;;;;35.17;11.40;;;7.00;99.90;;;;;;6191103;23;20047;-81
2023/02/20 05:27:59;;;;;;;43.30;12.40;;;7.10;99.90;;;;;;6191866;23;20016;-80
2023/02/20 05:31:02;;;;;;;44.67;13.18;;;7.10;99.90;;;;;;6191783;23;20048;-81
2023/02/20 05:33:28;;;;;;;32.95;12.52;;;7.00;99.90;;;;;;6216072;23;20020;-82
2023/02/20 05:35:54;;;;;;;39.38;12.50;;;7.20;99.90;;;;;;6215274;23;20020;-81
2023/02/20 05:38:19;;;;;;;34.60;13.60;;;7.30;99.90;;;;;;6191313;23;20043;-81
2023/02/20 05:40:46;;;;;;;46.35;13.02;;;7.10;99.90;;;;;;6216623;23;20122;-84
2023/02/20 05:43:11;;;;;;;38.88;12.32;;;6.80;99.90;;;;;;6192068;23;20024;-83
2023/02/20 05:45:37;;;;;;;46.75;12.65;;;7.00;99.90;;;;;;6215912;23;20012;-83
2023/02/20 05:48:03;;;;;;;32.60;11.40;;;7.10;99.90;;;;;;6192028;23;20070;-83
2023/02/20 05:50:28;;;;;;;32.90;11.60;;;7.10;99.90;;;;;;6191881;23;20066;-83
2023/02/20 05:52:54;;;;;;;32.35;11.20;;;7.20;99.90;;;;;;6216101;23;20091;-79
2023/02/20 05:55:19;;;;;;;45.72;12.15;;;7.60;99.90;;;;;;6191246;23;20118;-79
2023/02/20 05:57:45;;;;;;;44.50;12.27;;;7.50;99.90;;;;;;6216257;23;20637;-85
2023/02/20 06:00:12;;;;;;;40.17;11.23;;;7.70;99.90;;;;;;6191668;23;20502;-82
2023/02/20 06:02:39;;;;;;;41.40;11.60;;;7.20;99.90;;;;;;6217245;23;20016;-83
2023/02/20 06:05:06;;;;;;;35.50;10.70;;;7.70;99.90;;;;;;6216677;23;20016;-81
2023/02/20 06:07:32;;;;;;;37.17;11.32;;;7.30;99.90;;;;;;6190553;23;20115;-84
2023/02/20 06:09:58;;;;;;;37.33;10.15;;;7.20;99.90;;;;;;6215731;23;20012;-86
2023/02/20 06:12:24;;;;;;;31.63;11.25;;;7.70;99.90;;;;;;6216914;23;20452;-84
2023/02/20 06:14:50;;;;;;;32.95;10.70;;;7.60;99.90;;;;;;6188856;23;20027;-81
2023/02/20 06:17:15;;;;;;;37.95;11.02;;;7.70;99.90;;;;;;6190460;23;20313;-84
2023/02/20 06:19:41;;;;;;;35.58;11.02;;;7.60;99.90;;;;;;6191076;23;20087;-80
2023/02/20 06:22:06;;;;;;;37.47;9.95;;;7.40;99.90;;;;;;6216253;23;20016;-80
2023/02/20 06:24:32;;;;;;;35.03;10.70;;;7.80;99.90;;;;;;6192781;23;20472;-81
2023/02/20 06:27:00;;;;;;;32.83;10.32;;;7.80;99.90;;;;;;6217482;23;20077;-81
2023/02/20 06:29:25;;;;;;;37.38;10.23;;;7.90;99.90;;;;;;6218679;23;20404;-83
2023/02/20 06:31:51;;;;;;;31.90;9.52;;;7.80;99.90;;;;;;6218580;23;20021;-81
2023/02/20 06:34:18;;;;;;;32.92;10.00;;;7.80;99.90;;;;;;6193602;23;20019;-84
2023/02/20 06:36:44;;;;;;;23.95;9.18;;;7.90;99.90;;;;;;6167729;23;20012;-81
2023/02/20 06:39:12;;;;;;;28.75;9.23;;;7.50;99.90;;;;;;6217807;23;20083;-85
2023/02/20 06:41:38;;;;;;;28.67;8.65;;;7.60;99.90;;;;;;6192862;23;20009;-80
2023/02/20 06:44:04;;;;;;;30.17;9.30;;;7.50;99.90;;;;;;6193942;23;20020;-83
2023/02/20 06:46:30;;;;;;;31.45;9.18;;;7.50;99.90;;;;;;6191441;23;20497;-81
2023/02/20 06:48:57;;;;;;;34.13;9.27;;;7.60;99.90;;;;;;6192205;23;20107;-82
2023/02/20 06:51:30;;;;;;;27.52;9.27;;;7.50;99.90;;;;;;6218159;23;20621;-84
2023/02/20 06:53:57;;;;;;;33.10;8.73;;;7.90;99.90;;;;;;6191698;23;20020;-83
2023/02/20 06:56:26;;;;;;;26.52;9.43;;;7.90;99.90;;;;;;6216319;23;20008;-80
2023/02/20 06:58:52;;;;;;;31.17;9.60;;;7.50;99.90;;;;;;6193285;23;20012;-81
2023/02/20 07:01:20;;;;;;;26.80;9.52;;;7.50;99.90;;;;;;6216641;23;20721;-81
2023/02/20 07:03:47;;;;;;;28.42;9.48;;;7.90;99.90;;;;;;6193208;23;20012;-80
2023/02/20 07:06:14;;;;;;;24.90;9.10;;;7.90;99.90;;;;;;6191394;23;20024;-84
2023/02/20 07:08:40;;;;;;;24.48;9.48;;;7.60;99.90;;;;;;6215328;23;20304;-82
2023/02/20 07:11:06;;;;;;;23.60;8.40;;;7.70;99.90;;;;;;6191706;23;20016;-80
2023/02/20 07:13:31;;;;;;;29.77;8.68;;;7.70;99.90;;;;;;6216492;23;20012;-84
2023/02/20 07:15:57;;;;;;;29.13;8.95;;;7.50;99.90;;;;;;6192137;23;20095;-81
2023/02/20 07:18:23;;;;;;;26.35;9.20;;;8.00;99.90;;;;;;6188014;23;20051;-82
2023/02/20 07:20:50;;;;;;;28.00;8.80;;;7.70;99.90;;;;;;6214941;23;20404;-82
2023/02/20 07:23:16;;;;;;;29.00;8.18;;;7.80;99.90;;;;;;6214465;23;20070;-79
2023/02/20 07:25:42;;;;;;;32.58;8.85;;;8.00;99.90;;;;;;6189599;23;20020;-82
2023/02/20 07:28:08;;;;;;;27.15;9.07;;;7.60;99.90;;;;;;6188499;23;20024;-82
2023/02/20 07:30:33;;;;;;;23.90;8.60;;;7.60;99.90;;;;;;6188036;23;20047;-81
2023/02/20 07:32:59;;;;;;;29.83;8.75;;;7.60;99.90;;;;;;6216242;23;20098;-83
2023/02/20 07:35:25;;;;;;;27.48;8.90;;;8.00;99.90;;;;;;6218511;23;20020;-82
2023/02/20 07:37:51;;;;;;;23.35;8.98;;;7.60;99.90;;;;;;6215545;23;20012;-80
2023/02/20 07:40:17;;;;;;;21.50;8.27;;;7.90;99.90;;;;;;6216511;23;20008;-83
2023/02/20 07:42:44;;;;;;;31.13;9.20;;;8.10;99.90;;;;;;6216222;23;20119;-82
2023/02/20 07:45:10;;;;;;;23.30;8.65;;;7.70;99.90;;;;;;6193217;23;20020;-82
2023/02/20 07:47:36;;;;;;;21.98;7.60;;;7.80;99.90;;;;;;6189665;23;20023;-85
2023/02/20 07:50:02;;;;;;;28.13;9.02;;;7.90;99.90;;;;;;6190445;23;20016;-81
2023/02/20 07:52:28;;;;;;;24.85;8.57;;;7.60;99.90;;;;;;6192292;23;20082;-84
2023/02/20 07:54:54;;;;;;;27.23;8.73;;;8.20;99.90;;;;;;6194018;23;20016;-86
2023/02/20 07:57:19;;;;;;;25.52;8.30;;;7.80;99.90;;;;;;6217903;23;20043;-82
2023/02/20 07:59:45;;;;;;;26.40;8.43;;;8.00;99.90;;;;;;6191942;23;20054;-86
2023/02/20 08:05:36;;;;;;;19.75;7.38;;;8.00;99.90;;;;;;6220366;23;20069;-83
2023/02/20 08:08:01;;;;;;;22.35;7.32;;;8.00;99.90;;;;;;6195842;23;20016;-85
2023/02/20 08:10:28;;;;;;;22.38;6.47;;;8.20;99.90;;;;;;6219717;23;20046;-86
2023/02/20 08:12:54;;;;;;;21.52;6.85;;;8.10;99.90;;;;;;6192650;23;20027;-81
2023/02/20 08:15:21;;;;;;;20.02;7.75;;;8.00;99.90;;;;;;6194476;23;20039;-82
2023/02/20 08:17:48;;;;;;;20.27;7.70;;;8.20;99.90;;;;;;6219834;23;20012;-85
2023/02/20 08:20:19;;;;;;;19.75;7.13;;;8.10;99.90;;;;;;6219370;23;20016;-82
2023/02/20 08:22:46;;;;;;;21.83;7.82;;;8.40;99.90;;;;;;6217163;23;20008;-84
2023/02/20 08:25:13;;;;;;;21.48;7.55;;;8.30;99.90;;;;;;6192701;23;20466;-86
2023/02/20 08:27:43;;;;;;;19.48;7.50;;;8.40;99.90;;;;;;6192333;23;20118;-81
2023/02/20 08:30:12;;;;;;;27.27;7.93;;;8.20;99.90;;;;;;6217027;23;20018;-81
2023/02/20 08:32:37;;;;;;;20.75;7.55;;;8.20;99.90;;;;;;6216472;23;20047;-82
2023/02/20 08:35:03;;;;;;;20.27;7.85;;;8.10;99.90;;;;;;6192579;23;20028;-80
2023/02/20 08:37:29;;;;;;;25.63;8.52;;;8.10;99.90;;;;;;6190687;23;20387;-81
2023/02/20 08:39:55;;;;;;;29.42;8.65;;;8.50;99.90;;;;;;6190747;23;20048;-80
2023/02/20 08:42:20;;;;;;;24.60;8.10;;;8.30;99.90;;;;;;6192198;23;20087;-85
2023/02/20 08:44:46;;;;;;;27.27;8.20;;;8.20;99.90;;;;;;6190765;23;20051;-83
2023/02/20 08:47:12;;;;;;;27.63;8.50;;;8.50;99.90;;;;;;6165670;23;20024;-84
2023/02/20 08:49:38;;;;;;;20.73;8.32;;;8.40;99.90;;;;;;6219700;23;20450;-80
2023/02/20 08:52:04;;;;;;;23.52;7.70;;;8.10;99.90;;;;;;6193841;23;20103;-80
2023/02/20 08:54:30;;;;;;;19.40;8.15;;;8.20;99.90;;;;;;6224670;23;20020;-81
2023/02/20 08:56:56;;;;;;;27.35;7.55;;;8.50;99.90;;;;;;6228964;23;20293;-78
2023/02/20 08:59:22;;;;;;;20.25;8.10;;;8.30;99.90;;;;;;6238583;23;20012;-82
2023/02/20 09:01:48;;;;;;;20.40;7.75;;;8.30;99.90;;;;;;6260955;23;20012;-81
2023/02/20 09:04:15;;;;;;;22.48;8.48;;;8.30;99.90;;;;;;6222127;23;20067;-84
2023/02/20 09:06:41;;;;;;;19.30;7.45;;;8.60;99.90;;;;;;6218156;23;20012;-79
2023/02/20 09:09:07;;;;;;;21.85;7.38;;;8.50;99.90;;;;;;6219579;23;20016;-81
2023/02/20 09:11:32;;;;;;;19.67;6.95;;;8.50;99.90;;;;;;6190075;23;20436;-85
2023/02/20 09:13:58;;;;;;;17.25;6.65;;;8.60;99.90;;;;;;6215761;23;20077;-86
2023/02/20 09:16:24;;;;;;;17.80;6.85;;;8.40;99.90;;;;;;6215729;23;20013;-85
2023/02/20 09:18:50;;;;;;;18.88;6.90;;;8.50;99.90;;;;;;6190950;23;20172;-86
2023/02/20 09:21:18;;;;;;;22.45;7.43;;;8.40;99.90;;;;;;6191736;23;20456;-83
2023/02/20 09:23:44;;;;;;;18.38;6.68;;;8.30;99.90;;;;;;6214450;23;20023;-82
2023/02/20 09:26:10;;;;;;;16.08;6.30;;;8.50;99.90;;;;;;6191825;23;20012;-83
2023/02/20 09:28:36;;;;;;;21.35;6.88;;;8.40;99.90;;;;;;6191681;23;20044;-85
2023/02/20 09:34:43;;;;;;;26.65;6.85;;;8.50;99.90;;;;;;6242832;23;20065;-80
2023/02/20 09:37:10;;;;;;;17.25;7.15;;;8.50;99.90;;;;;;6192807;23;20008;-84
2023/02/20 09:39:35;;;;;;;22.48;6.63;;;8.60;99.90;;;;;;6216244;23;20016;-83
2023/02/20 09:42:24;;;;;;;17.92;7.00;;;8.80;99.90;;;;;;6193364;23;20008;-84
2023/02/20 09:45:02;;;;;;;19.92;6.47;;;8.60;99.90;;;;;;6215622;23;20078;-81
2023/02/20 09:47:54;;;;;;;18.42;6.82;;;8.50;99.90;;;;;;6191279;23;20016;-81
2023/02/20 09:50:41;;;;;;;24.92;7.28;;;8.90;99.90;;;;;;6191067;23;20020;-81
2023/02/20 09:53:29;;;;;;;21.90;7.35;;;8.80;99.90;;;;;;6191921;23;20016;-81
2023/02/20 09:55:57;;;;;;;23.95;7.05;;;8.70;99.90;;;;;;6040924;23;20047;-83
2023/02/20 09:58:52;;;;;;;16.35;6.53;;;8.60;99.90;;;;;;6041215;23;20018;-81
2023/02/20 10:01:41;;;;;;;22.45;7.15;;;8.90;99.90;;;;;;6043012;23;20097;-84
2023/02/20 10:04:13;;;;;;;21.23;7.10;;;8.90;99.90;;;;;;6067579;23;20202;-82
2023/02/20 10:06:39;;;;;;;26.05;7.63;;;8.60;99.90;;;;;;6041800;23;20331;-79
2023/02/20 10:09:11;;;;;;;24.15;7.65;;;8.60;99.90;;;;;;6068018;23;20018;-84
2023/02/20 10:12:04;;;;;;;26.65;7.40;;;8.70;99.90;;;;;;6069477;23;20089;-84
2023/02/20 10:14:30;;;;;;;19.05;7.13;;;9.10;99.90;;;;;;6045561;23;20025;-81
2023/02/20 10:17:24;;;;;;;23.80;7.72;;;8.70;99.90;;;;;;6045530;23;20014;-81
2023/02/20 10:20:09;;;;;;;19.23;7.57;;;8.90;99.90;;;;;;6045001;23;20053;-81
2023/02/20 10:22:38;;;;;;;18.00;7.57;;;9.20;99.90;;;;;;6044133;23;20750;-83
2023/02/20 10:25:27;;;;;;;20.50;7.25;;;9.10;99.90;;;;;;6043164;23;20351;-83
2023/02/20 10:28:08;;;;;;;22.52;7.38;;;9.20;99.90;;;;;;6043729;23;20024;-80
2023/02/20 10:30:45;;;;;;;20.40;7.90;;;9.20;99.90;;;;;;6068258;23;20142;-81
2023/02/20 10:33:21;;;;;;;22.25;7.50;;;8.80;99.90;;;;;;6131273;23;20082;-79
2023/02/20 10:36:17;;;;;;;25.58;7.47;;;8.90;99.90;;;;;;6217104;23;20055;-81
2023/02/20 10:38:49;;;;;;;28.13;7.28;;;8.90;99.90;;;;;;6205540;23;20016;-81
2023/02/20 10:41:30;;;;;;;15.13;6.80;;;8.90;99.90;;;;;;6188673;23;20067;-80
2023/02/20 10:44:17;;;;;;;21.05;7.38;;;9.10;99.90;;;;;;6226482;23;20448;-80
2023/02/20 10:46:43;;;;;;;26.38;6.93;;;9.30;99.90;;;;;;6215280;23;20071;-81
2023/02/20 10:49:16;;;;;;;19.02;6.40;;;9.40;99.90;;;;;;6193011;23;20095;-81
2023/02/20 10:51:49;;;;;;;15.63;6.55;;;9.00;99.90;;;;;;6216328;23;20013;-80
2023/02/20 10:54:43;;;;;;;13.13;5.30;;;9.10;99.90;;;;;;6188009;23;20008;-82
2023/02/20 10:57:24;;;;;;;19.85;6.63;;;9.50;99.90;;;;;;6215510;23;20016;-80
2023/02/20 11:00:01;;;;;;;15.70;6.55;;;9.20;99.90;;;;;;6191059;23;20008;-84
2023/02/20 11:02:32;;;;;;;21.17;6.53;;;9.40;99.90;;;;;;6213912;23;20012;-83
2023/02/20 11:05:07;;;;;;;20.60;6.10;;;9.60;99.90;;;;;;6188100;23;20020;-80
2023/02/20 11:07:33;;;;;;;23.48;6.82;;;9.50;99.90;;;;;;6189595;23;20023;-82
2023/02/20 11:09:59;;;;;;;22.83;6.22;;;9.50;99.90;;;;;;6187678;23;20016;-83
2023/02/20 11:12:39;;;;;;;19.58;6.15;;;9.70;99.90;;;;;;6214237;23;20162;-82
2023/02/20 11:15:24;;;;;;;23.63;5.88;;;9.30;99.90;;;;;;6188845;23;20408;-83
2023/02/20 11:17:53;;;;;;;15.32;5.60;;;9.60;99.90;;;;;;6200969;23;20016;-81
2023/02/20 11:20:31;;;;;;;19.42;6.18;;;9.50;99.90;;;;;;6188539;23;20012;-80
2023/02/20 11:22:57;;;;;;;20.17;6.03;;;9.30;99.90;;;;;;6190169;23;20182;-81
2023/02/20 11:25:27;;;;;;;20.92;5.82;;;9.30;99.90;;;;;;6187722;23;20016;-80
2023/02/20 11:28:18;;;;;;;18.63;6.05;;;9.60;99.90;;;;;;6187479;23;20044;-79
2023/02/20 11:30:47;;;;;;;15.30;5.75;;;9.70;99.90;;;;;;6040158;23;20061;-84
2023/02/20 11:33:14;;;;;;;16.63;5.60;;;9.50;99.90;;;;;;6041208;23;20167;-83
2023/02/20 11:35:42;;;;;;;19.15;5.93;;;9.80;99.90;;;;;;6062554;23;20020;-81
2023/02/20 11:38:13;;;;;;;20.50;6.00;;;9.80;99.90;;;;;;6063238;23;20118;-80
2023/02/20 11:40:40;;;;;;;19.35;6.00;;;9.90;99.90;;;;;;6064334;23;20101;-81
2023/02/20 11:43:26;;;;;;;13.98;5.35;;;9.70;99.90;;;;;;6065152;23;20414;-82
2023/02/20 11:46:19;;;;;;;17.67;5.45;;;9.70;99.90;;;;;;6090503;23;20338;-83
2023/02/20 11:48:57;;;;;;;24.30;6.18;;;9.80;99.90;;;;;;6041832;23;20102;-80
2023/02/20 11:51:47;;;;;;;20.75;5.57;;;9.70;99.90;;;;;;6066329;23;20022;-83
2023/02/20 11:54:12;;;;;;;14.50;5.55;;;9.60;99.90;;;;;;6042373;23;20453;-80
2023/02/20 11:56:55;;;;;;;18.58;5.15;;;9.90;99.90;;;;;;6041700;23;20026;-81
2023/02/20 11:59:47;;;;;;;20.40;6.13;;;9.70;99.90;;;;;;6066755;23;20071;-81
2023/02/20 12:02:16;;;;;;;15.10;5.40;;;10.00;99.90;;;;;;6066695;23;20462;-83
2023/02/20 12:05:08;;;;;;;15.00;4.97;;;9.80;99.90;;;;;;6042346;23;20022;-81
2023/02/20 12:07:50;;;;;;;17.63;6.18;;;9.80;99.90;;;;;;6127778;23;20407;-83
2023/02/20 12:10:42;;;;;;;19.38;5.57;;;10.10;99.90;;;;;;6191101;23;20023;-83
2023/02/20 12:13:13;;;;;;;16.00;5.18;;;9.90;99.90;;;;;;6189897;23;20020;-82
2023/02/20 12:15:39;;;;;;;22.00;6.22;;;9.90;99.90;;;;;;6191386;23;20247;-82
2023/02/20 12:18:46;;;;;;;27.45;7.05;;;9.90;99.90;;;;;;6188602;23;20095;-82
2023/02/20 12:21:23;;;;;;;16.67;5.32;;;10.20;99.90;;;;;;6039668;23;20022;-81
2023/02/20 12:24:29;;;;;;;20.42;5.63;;;9.90;99.90;;;;;;6040619;23;20023;-81
2023/02/20 12:26:59;;;;;;;16.05;4.80;;;9.80;99.90;;;;;;6054707;23;20124;-83
2023/02/20 12:29:44;;;;;;;11.73;3.72;;;10.00;99.90;;;;;;6038896;23;20061;-81
2023/02/20 12:32:20;;;;;;;19.42;5.07;;;10.00;99.90;;;;;;6067388;23;20431;-83
2023/02/20 12:35:16;;;;;;;26.17;6.28;;;10.30;99.90;;;;;;6067456;23;20435;-84
2023/02/20 12:37:57;;;;;;;17.05;4.97;;;10.20;99.90;;;;;;6066890;23;20045;-82
2023/02/20 12:41:04;;;;;;;22.55;5.95;;;10.10;99.90;;;;;;6068306;23;20021;-84
2023/02/20 12:43:56;;;;;;;19.35;5.68;;;10.20;99.90;;;;;;6057857;23;20066;-83
2023/02/20 12:46:51;;;;;;;21.13;5.90;;;10.00;99.90;;;;;;6075178;23;20050;-83
2023/02/20 12:49:34;;;;;;;19.05;5.35;;;10.10;99.90;;;;;;6089733;23;20018;-81
2023/02/20 12:52:21;;;;;;;21.52;5.55;;;10.30;99.90;;;;;;6091487;23;20032;-82
2023/02/20 12:54:57;;;;;;;22.30;5.65;;;10.10;99.90;;;;;;6080801;23;20312;-82
2023/02/20 12:58:01;;;;;;;20.00;5.65;;;10.40;99.90;;;;;;6122057;23;20065;-83
2023/02/20 13:00:46;;;;;;;19.85;6.13;;;10.20;99.90;;;;;;6165064;23;20019;-83
2023/02/20 13:03:15;;;;;;;18.10;5.47;;;10.20;99.90;;;;;;6191695;23;20091;-83
2023/02/20 13:05:47;;;;;;;21.30;5.70;;;10.50;99.90;;;;;;6192592;23;20027;-84
2023/02/20 13:08:28;;;;;;;20.63;5.43;;;10.50;99.90;;;;;;6190408;23;20367;-85
2023/02/20 13:11:16;;;;;;;25.65;6.20;;;10.40;99.90;;;;;;6213170;23;20292;-81
2023/02/20 13:13:41;;;;;;;16.90;5.15;;;10.30;99.90;;;;;;6194247;23;20440;-82
2023/02/20 13:16:16;;;;;;;17.98;5.45;;;10.00;99.90;;;;;;6215986;23;20100;-84
2023/02/20 13:19:19;;;;;;;16.58;4.70;;;10.50;99.90;;;;;;6192071;23;20429;-84
2023/02/20 13:21:44;;;;;;;23.25;5.80;;;10.20;99.90;;;;;;6189411;23;20831;-80
2023/02/20 13:24:16;;;;;;;16.55;4.85;;;10.30;99.90;;;;;;6214189;23;20016;-84
2023/02/20 13:26:47;;;;;;;21.92;5.97;;;10.30;99.90;;;;;;6215374;23;20090;-82
2023/02/20 13:29:18;;;;;;;16.25;4.80;;;10.60;99.90;;;;;;6183616;23;20031;-84